Latest Weather Observations for Learmonth

IDW60801

Issued at 10:13 am WST Tuesday 28 June 2022 (issued every 10 minutes, with the page automatically refreshed every 10 minutes)

About weather observations | Map of weather stations | Latest weather observations for WA | Other Formats
Station Details ID: 005007 Name: LEARMONTH AIRPORT Lat: -22.24 Lon: 114.10 Height: 5.0 m
Data from the previous 72 hours. | See also: Recent months at Learmonth
Date/Time
WST
Temp
°C
App
Temp
°C
Dew
Point
°C
Rel
Hum
%
Delta-T
°C
Wind Press
QNH
hPa
Press
MSL
hPa
Rain since
9am
mm
Dir  Spd
km/h
Gust
km/h
Spd
kts
Gust
kts
28/10:00am 20.0 15.7 10.7 55 5.0 ESE 24 30 13 16 1021.3 1021.3 0.0
28/09:30am 19.4 14.9 10.1 55 5.0 ESE 24 32 13 17 1021.2 1021.2 0.0
28/09:00am 18.9 14.3 9.7 55 4.9 ESE 24 32 13 17 1021.0 1021.0 0.0
28/08:30am 18.0 14.0 10.4 61 4.1 ESE 22 28 12 15 1020.8 1020.8 0.0
28/08:00am 14.0 12.4 10.2 78 2.0 SW 9 15 5 8 1020.9 1020.9 0.0
28/07:30am 11.0 8.5 8.4 84 1.3 SW 11 15 6 8 1020.9 1020.9 0.0
28/07:00am 10.6 7.6 7.8 83 1.3 SW 13 17 7 9 1020.7 1020.7 0.0
28/06:30am 10.8 8.2 7.9 82 1.4 SW 11 15 6 8 1020.5 1020.5 0.0
28/06:00am 11.3 8.5 8.5 83 1.4 SW 13 17 7 9 1020.4 1020.4 0.0
28/05:30am 11.2 8.3 8.2 82 1.5 WSW 13 15 7 8 1020.5 1020.5 0.0
28/05:00am 11.3 8.8 8.0 80 1.6 SW 11 15 6 8 1020.4 1020.4 0.0
28/04:30am 11.4 8.8 7.9 79 1.7 WSW 11 13 6 7 1020.5 1020.5 0.0
28/04:00am 12.0 9.1 8.3 78 1.8 WSW 13 15 7 8 1020.5 1020.5 0.0
28/03:30am 12.0 9.6 8.5 79 1.7 SW 11 13 6 7 1020.4 1020.4 0.0
28/03:00am 12.0 9.2 8.7 80 1.6 SW 13 17 7 9 1020.6 1020.6 0.0
28/02:30am 12.1 9.4 8.9 81 1.6 SW 13 15 7 8 1020.6 1020.6 0.0
28/02:00am 12.0 9.3 8.8 81 1.6 WSW 13 15 7 8 1020.8 1020.8 0.0
28/01:30am 11.8 9.1 8.8 82 1.5 SW 13 15 7 8 1020.9 1020.9 0.0
28/01:00am 12.1 9.4 8.9 81 1.6 SW 13 15 7 8 1021.0 1021.0 0.0
28/12:30am 12.5 10.6 9.0 79 1.8 SW 9 11 5 6 1021.0 1021.0 0.0
28/12:00am 11.7 9.0 8.9 83 1.4 SSW 13 13 7 7 1021.0 1021.0 0.0
 
Date/Time
WST
Temp
°C
App
Temp
°C
Dew
Point
°C
Rel
Hum
%
Delta-T
°C
Wind Press
QNH
hPa
Press
MSL
hPa
Rain since
9am
mm
Dir  Spd
km/h
Gust
km/h
Spd
kts
Gust
kts
27/11:30pm 11.6 8.5 8.8 83 1.4 SSW 15 15 8 8 1021.1 1021.1 0.0
27/11:00pm 11.9 8.9 9.1 83 1.4 SSW 15 17 8 9 1021.2 1021.2 0.0
27/10:30pm 11.9 8.9 9.1 83 1.4 SSW 15 17 8 9 1021.3 1021.3 0.0
27/10:00pm 12.5 9.8 9.1 80 1.7 SSW 13 15 7 8 1021.2 1021.2 0.0
27/09:30pm 12.9 10.0 9.7 81 1.6 SW 15 15 8 8 1021.1 1021.1 0.0
27/09:00pm 13.3 11.0 10.3 82 1.5 SW 13 13 7 7 1021.1 1021.1 0.0
27/08:30pm 13.5 11.5 10.1 80 1.8 SW 11 15 6 8 1021.0 1021.0 0.0
27/08:00pm 14.9 13.3 10.1 73 2.5 WSW 9 11 5 6 1020.7 1020.7 0.0
27/07:30pm 15.9 14.8 10.7 71 2.8 SW 7 9 4 5 1020.4 1020.4 0.0
27/07:00pm 16.8 15.9 10.6 67 3.3 S 6 7 3 4 1020.1 1020.1 0.0
27/06:30pm 19.1 17.8 10.1 56 4.8 SE 7 7 4 4 1019.9 1019.9 0.0
27/06:00pm 20.7 18.9 9.3 48 6.0 SE 9 9 5 5 1019.7 1019.7 0.0
27/05:30pm 22.3 20.8 9.1 43 7.1 SE 7 9 4 5 1019.4 1019.4 0.0
27/05:00pm 23.8 21.5 7.4 35 8.6 SE 9 15 5 8 1019.2 1019.2 0.0
27/04:30pm 24.8 21.9 6.5 31 9.5 SE 11 15 6 8 1019.3 1019.3 0.0
27/04:00pm 25.1 22.4 5.8 29 9.9 E 9 13 5 7 1019.4 1019.4 0.0
27/03:30pm 24.9 22.5 5.2 28 10.0 ESE 7 11 4 6 1019.5 1019.5 0.0
27/03:00pm 25.0 22.5 6.7 31 9.5 ENE 9 13 5 7 1019.8 1019.8 0.0
27/02:30pm 24.9 22.4 8.4 35 8.8 ENE 11 17 6 9 1020.0 1020.0 0.0
27/02:00pm 24.5 22.1 10.0 40 8.0 ENE 13 19 7 10 1020.2 1020.2 0.0
27/01:30pm 24.8 22.4 11.4 43 7.6 ENE 15 20 8 11 1020.5 1020.5 0.0
27/01:00pm 24.4 21.3 10.3 41 7.8 E 17 22 9 12 1020.8 1020.8 0.0
27/12:30pm 24.4 20.4 10.3 41 7.8 E 22 28 12 15 1021.4 1021.4 0.0
27/12:00pm 23.8 20.3 10.8 44 7.2 E 20 28 11 15 1021.8 1021.8 0.0
27/11:30am 23.3 19.8 11.0 46 6.8 E 20 28 11 15 1022.3 1022.3 0.0
27/11:00am 22.5 18.9 10.6 47 6.5 E 20 26 11 14 1022.8 1022.8 0.0
27/10:30am 21.9 18.9 10.7 49 6.1 ESE 17 20 9 11 1023.2 1023.2 0.0
27/10:00am 21.5 19.2 10.3 49 6.1 ESE 13 19 7 10 1023.4 1023.4 0.0
27/09:30am 20.8 19.2 11.4 55 5.2 SE 11 15 6 8 1023.5 1023.5 0.0
27/09:00am 18.1 17.6 12.5 70 3.1 S 7 9 4 5 1023.3 1023.3 0.0
27/08:30am 15.8 15.4 12.9 83 1.6 SSW 7 9 4 5 1023.2 1023.2 0.0
27/08:00am 12.7 11.3 10.9 89 0.9 SW 9 13 5 7 1022.9 1022.9 0.0
27/07:30am 10.7 8.3 8.8 88 0.9 SW 11 13 6 7 1022.5 1022.5 0.0
27/07:00am 10.5 8.5 8.8 89 0.8 WSW 9 13 5 7 1022.2 1022.2 0.0
27/06:30am 9.9 7.7 8.0 88 0.9 WSW 9 13 5 7 1021.8 1021.8 0.0
27/06:00am 10.5 8.4 8.4 87 1.0 W 9 11 5 6 1021.4 1021.4 0.0
27/05:30am 10.0 6.7 8.1 88 0.9 WSW 15 15 8 8 1021.3 1021.3 0.0
27/05:00am 10.1 7.1 7.9 86 1.1 SW 13 15 7 8 1021.2 1021.2 0.0
27/04:30am 10.9 8.7 8.0 82 1.4 SW 9 11 5 6 1021.1 1021.1 0.0
27/04:00am 12.2 11.7 7.9 75 2.1 CALM 0 0 0 0 1021.0 1021.0 0.0
27/03:30am 12.1 9.9 7.8 75 2.1 SE 9 9 5 5 1020.9 1020.9 0.0
27/03:00am 12.5 10.7 7.0 69 2.6 SSW 6 7 3 4 1021.0 1021.0 0.0
27/02:30am 11.9 8.8 7.4 74 2.2 SW 13 15 7 8 1021.0 1021.0 0.0
27/02:00am 12.1 8.8 8.0 76 2.0 SW 15 15 8 8 1021.0 1021.0 0.0
27/01:30am 12.7 9.8 8.0 73 2.3 WSW 13 15 7 8 1021.0 1021.0 0.0
27/01:00am 12.6 10.3 8.9 78 1.8 WSW 11 13 6 7 1021.2 1021.2 0.0
27/12:30am 11.7 9.5 8.0 78 1.8 SSW 9 13 5 7 1021.4 1021.4 0.0
27/12:00am 13.0 10.2 8.7 75 2.1 W 13 15 7 8 1021.4 1021.4 0.0
 
Date/Time
WST
Temp
°C
App
Temp
°C
Dew
Point
°C
Rel
Hum
%
Delta-T
°C
Wind Press
QNH
hPa
Press
MSL
hPa
Rain since
9am
mm
Dir  Spd
km/h
Gust
km/h
Spd
kts
Gust
kts
26/11:30pm 12.9 9.8 8.8 76 2.1 WNW 15 17 8 9 1021.5 1021.5 0.0
26/11:00pm 13.4 11.1 8.9 74 2.3 W 11 13 6 7 1021.4 1021.4 0.0
26/10:30pm 13.5 11.2 9.0 74 2.3 SW 11 13 6 7 1021.4 1021.4 0.0
26/10:00pm 14.5 12.2 9.1 70 2.7 SW 11 13 6 7 1021.3 1021.3 0.0
26/09:30pm 14.1 11.5 9.5 74 2.4 WSW 13 13 7 7 1021.2 1021.2 0.0
26/09:00pm 14.4 11.9 9.8 74 2.4 SW 13 13 7 7 1021.0 1021.0 0.0
26/08:30pm 14.5 12.2 10.3 76 2.2 SW 13 13 7 7 1020.8 1020.8 0.0
26/08:00pm 15.1 13.4 9.7 70 2.8 WSW 9 11 5 6 1020.6 1020.6 0.0
26/07:30pm 16.7 14.6 9.6 63 3.7 NW 11 11 6 6 1020.2 1020.2 0.0
26/07:00pm 17.9 15.7 9.5 58 4.4 WNW 11 13 6 7 1019.9 1019.9 0.0
26/06:30pm 18.6 17.4 10.2 58 4.5 SSW 7 9 4 5 1019.6 1019.6 0.0
26/06:00pm 20.4 19.0 10.8 54 5.2 S 9 9 5 5 1019.3 1019.3 0.0
26/05:30pm 24.4 23.3 7.1 33 9.0 SE 2 6 1 3 1018.8 1018.8 0.0
26/05:00pm 25.0 23.4 8.1 34 9.0 SE 6 9 3 5 1018.6 1018.6 0.0
26/04:30pm 25.9 23.3 4.4 25 10.8 ESE 7 11 4 6 1018.5 1018.5 0.0
26/04:00pm 26.2 22.8 4.1 24 11.0 ESE 11 15 6 8 1018.5 1018.5 0.0
26/03:30pm 26.3 22.8 5.3 26 10.7 ESE 13 17 7 9 1018.6 1018.6 0.0
26/03:00pm 26.6 23.2 6.1 27 10.6 E 13 17 7 9 1018.5 1018.5 0.0
26/02:30pm 26.4 22.8 4.8 25 11.0 E 13 17 7 9 1018.5 1018.5 0.0
26/02:00pm 26.4 22.2 5.9 27 10.6 E 17 20 9 11 1018.5 1018.5 0.0
26/01:30pm 26.1 22.1 6.7 29 10.2 E 17 22 9 12 1018.8 1018.8 0.0
26/01:00pm 26.0 21.8 7.6 31 9.8 ESE 19 24 10 13 1019.3 1019.3 0.0
26/12:30pm 25.9 21.9 6.5 29 10.1 ESE 17 22 9 12 1019.7 1019.7 0.0
26/12:00pm 25.5 21.6 8.5 34 9.1 ESE 19 24 10 13 1020.2 1020.2 0.0
26/11:30am 24.5 20.7 8.9 37 8.4 ESE 19 24 10 13 1020.5 1020.5 0.0
26/11:00am 24.0 21.0 12.0 47 6.8 E 19 24 10 13 1020.7 1020.7 0.0
26/10:30am 23.4 20.4 12.4 50 6.3 E 20 26 11 14 1020.7 1020.7 0.0
26/10:00am 22.6 18.4 12.5 53 5.7 E 26 33 14 18 1020.6 1020.6 0.0
26/09:30am 21.7 17.0 12.0 54 5.4 E 28 35 15 19 1020.3 1020.3 0.0
26/09:00am 20.7 16.4 11.9 57 4.9 E 26 35 14 19 1020.1 1020.1 0.0
26/08:30am 18.5 18.6 12.7 69 3.2 SSW 4 11 2 6 1020.4 1020.4 0.0
26/08:00am 14.2 13.2 11.0 81 1.7 WSW 7 11 4 6 1020.4 1020.4 0.0
26/07:30am 11.9 10.6 9.1 83 1.4 SW 6 9 3 5 1020.2 1020.2 0.0
26/07:00am 10.9 9.1 7.8 81 1.5 WSW 7 9 4 5 1020.0 1020.0 0.0
26/06:30am 11.8 10.2 7.9 77 1.9 SW 6 9 3 5 1019.7 1019.7 0.0
26/06:00am 12.0 10.4 8.1 77 1.9 W 6 11 3 6 1019.4 1019.4 0.0
26/05:30am 12.5 10.8 8.2 75 2.1 WNW 7 13 4 7 1019.2 1019.2 0.0
26/05:00am 12.4 9.1 8.1 75 2.1 SW 15 17 8 9 1018.9 1018.9 0.0
26/04:30am 12.3 10.2 8.2 76 2.0 W 9 13 5 7 1018.9 1018.9 0.0
26/04:00am 12.4 9.8 7.9 74 2.2 WSW 11 17 6 9 1018.8 1018.8 0.0
26/03:30am 12.7 9.4 8.2 74 2.2 WSW 15 19 8 10 1018.6 1018.6 0.0
26/03:00am 12.4 9.1 7.9 74 2.2 SW 15 17 8 9 1018.6 1018.6 0.0
26/02:30am 11.9 9.0 8.0 77 1.9 SW 13 15 7 8 1018.7 1018.7 0.0
26/02:00am 11.9 8.7 8.4 79 1.7 SW 15 17 8 9 1018.8 1018.8 0.0
26/01:30am 11.9 8.7 8.4 79 1.7 SW 15 17 8 9 1019.0 1019.0 0.0
26/01:00am 12.3 9.2 8.8 79 1.7 SW 15 17 8 9 1018.8 1018.8 0.0
26/12:30am 12.4 9.4 9.2 81 1.6 SW 15 17 8 9 1018.7 1018.7 0.0
26/12:00am 12.4 9.8 9.4 82 1.5 SW 13 15 7 8 1018.6 1018.6 0.0
 
Date/Time
WST
Temp
°C
App
Temp
°C
Dew
Point
°C
Rel
Hum
%
Delta-T
°C
Wind Press
QNH
hPa
Press
MSL
hPa
Rain since
9am
mm
Dir  Spd
km/h
Gust
km/h
Spd
kts
Gust
kts
25/11:30pm 13.1 11.0 9.9 81 1.6 SW 11 13 6 7 1018.7 1018.7 0.0
25/11:00pm 12.5 10.2 10.4 87 1.1 SW 13 17 7 9 1018.7 1018.7 0.0
25/10:30pm 12.6 10.3 10.3 86 1.2 S 13 15 7 8 1018.7 1018.7 0.0
25/10:00pm 13.4 11.9 10.4 82 1.6 SW 9 9 5 5 1018.6 1018.6 0.0
25/09:30pm 13.7 11.9 10.9 83 1.5 SW 11 15 6 8 1018.4 1018.4 0.0
25/09:00pm 14.5 13.5 10.9 79 1.9 SW 7 9 4 5 1018.1 1018.1 0.0
25/08:30pm 15.5 14.2 11.3 76 2.3 WSW 9 11 5 6 1017.9 1017.9 0.0
25/08:00pm 16.3 15.0 11.2 72 2.7 W 9 13 5 7 1017.5 1017.5 0.0
25/07:30pm 17.1 16.5 11.6 70 3.0 WSW 6 9 3 5 1017.2 1017.2 0.0
25/07:00pm 17.7 16.5 11.5 67 3.4 WSW 9 13 5 7 1017.0 1017.0 0.0
25/06:30pm 20.4 19.6 11.6 57 4.9 N 7 9 4 5 1016.7 1016.6 0.0
25/06:00pm 22.4 21.7 10.2 46 6.6 N 4 7 2 4 1016.7 1016.6 0.0
25/05:30pm 23.9 22.8 10.6 43 7.4 N 7 9 4 5 1016.3 1016.2 0.0
25/05:00pm 25.2 23.7 9.1 36 8.7 N 7 11 4 6 1015.9 1015.8 0.0
25/04:30pm 26.6 25.4 8.1 31 10.0 N 4 9 2 5 1015.9 1015.8 0.0
25/04:00pm 26.7 24.6 8.2 31 10.0 NNE 9 11 5 6 1016.1 1016.0 0.0
25/03:30pm 26.7 24.3 8.6 32 9.8 NNE 11 13 6 7 1016.1 1016.0 0.0
25/03:00pm 26.8 25.1 11.3 38 8.8 ENE 11 15 6 8 1015.9 1015.8 0.0
25/02:30pm 26.5 24.3 9.4 34 9.4 ENE 11 17 6 9 1016.0 1015.9 0.0
25/02:00pm 26.4 24.5 10.5 37 8.9 E 11 15 6 8 1016.2 1016.1 0.0
25/01:30pm 26.1 23.8 10.3 37 8.8 E 13 17 7 9 1016.5 1016.4 0.0
25/01:00pm 25.9 23.9 8.8 34 9.3 E 9 13 5 7 1017.1 1017.1 0.0
25/12:30pm 25.5 22.8 8.9 35 9.0 ESE 13 19 7 10 1017.6 1017.6 0.0
25/12:00pm 24.7 23.2 10.6 41 7.8 SSE 9 15 5 8 1018.0 1018.0 0.0
25/11:30am 23.2 20.4 9.9 43 7.2 SE 15 20 8 11 1018.3 1018.3 0.0
25/11:00am 22.9 21.4 10.7 46 6.7 SE 9 13 5 7 1018.6 1018.6 0.0
25/10:30am 22.2 18.7 8.7 42 7.2 ESE 17 20 9 11 1018.8 1018.8 0.0

Other formats

Comma delimited format used in spreadsheet applications
http://www.bom.gov.au/fwo/IDW60801/IDW60801.94302.axf

JavaScript Object Notation format (JSON) in row-major order
http://www.bom.gov.au/fwo/IDW60801/IDW60801.94302.json

Data quality

Most of these data are generated automatically and are frequently updated. Quality checks on data are not normally performed. It is possible for incorrect values to appear. Refer to information at About Latest Weather Observations and please check the disclaimer before using these data.